KFUL/FUL METAR and TAF weather

Enter ICAO airport designator
Station Type Date Time Source
KFUL METAR 2019/08/25 19:53 UTC NOAA

KFUL 251953Z VRB03KT 10SM CLR 33/16 A2993 RMK AO2 SLP133 T03280161


Station Type Date Time Source
KFUL Decoded METAR 2019/08/25 19:53 UTC NOAA

Station name not available
Aug 25, 2019 - 03:53 PM EDT / 2019.08.25 1953 UTC
Wind: Variable at 3 MPH (3 KT):0
Visibility: 10 mile(s):0
Sky conditions: clear
Temperature: 91.0 F (32.8 C)
Dew Point: 61.0 F (16.1 C)
Relative Humidity: 36%
Pressure (altimeter): 29.93 in. Hg (1013 hPa)
ob: KFUL 251953Z VRB03KT 10SM CLR 33/16 A2993 RMK AO2 SLP133 T03280161
cycle: 20

Station Type Date Time Source
KFUL TAF UTC NOAA

Error!

Example: see airport list